createdAt,value
2023-07-21T00:01:10.387Z,99083.13
2023-07-21T00:03:39.485Z,99083.03
2023-07-21T00:06:10.380Z,99088.71
2023-07-21T00:08:37.572Z,99093.30
2023-07-21T00:11:04.810Z,99092.20
2023-07-21T00:13:35.811Z,99094.17
2023-07-21T00:16:06.104Z,99093.40
2023-07-21T00:18:33.307Z,99094.52
2023-07-21T00:21:00.737Z,99096.25
2023-07-21T00:23:27.994Z,99100.05
2023-07-21T00:25:55.579Z,99096.10
2023-07-21T00:28:22.345Z,99098.34
2023-07-21T00:30:49.013Z,99099.48
2023-07-21T00:33:16.129Z,99091.97
2023-07-21T00:35:43.462Z,99095.15
2023-07-21T00:38:10.732Z,99091.07
2023-07-21T00:40:38.107Z,99091.48
2023-07-21T00:43:05.230Z,99095.85
2023-07-21T00:45:35.150Z,99092.56
2023-07-21T00:48:04.654Z,99094.04
2023-07-21T00:50:31.310Z,99089.35
2023-07-21T00:52:59.381Z,99086.72
2023-07-21T00:55:26.390Z,99088.29
2023-07-21T00:57:52.838Z,99085.44
2023-07-21T01:00:20.009Z,99088.55
2023-07-21T01:02:50.164Z,99089.67
2023-07-21T01:05:18.007Z,99087.75
2023-07-21T01:07:44.557Z,99080.80
2023-07-21T01:10:12.241Z,99087.05
2023-07-21T01:12:39.848Z,99091.24
2023-07-21T01:15:07.631Z,99092.95
2023-07-21T01:17:35.089Z,99094.70
2023-07-21T01:20:05.202Z,99094.34
2023-07-21T01:22:36.687Z,99095.79
2023-07-21T01:25:11.607Z,99100.66
2023-07-21T01:27:40.294Z,99101.81
2023-07-21T01:30:09.874Z,99106.94
2023-07-21T01:32:39.820Z,99110.84
2023-07-21T01:35:11.961Z,99113.79
2023-07-21T01:37:40.022Z,99115.93
2023-07-21T01:40:12.513Z,99118.99
2023-07-21T01:42:40.984Z,99125.33
2023-07-21T01:45:08.042Z,99126.43
2023-07-21T01:47:35.295Z,99127.42
2023-07-21T01:50:02.470Z,99127.65
2023-07-21T01:52:32.236Z,99128.23
2023-07-21T01:55:02.277Z,99126.34
2023-07-21T01:57:32.357Z,99133.41
2023-07-21T01:59:59.824Z,99132.84
2023-07-21T02:02:27.688Z,99139.98
2023-07-21T02:04:54.544Z,99140.96
2023-07-21T02:07:22.726Z,99147.42
2023-07-21T02:09:53.124Z,99154.35
2023-07-21T02:12:20.626Z,99151.88
2023-07-21T02:14:56.261Z,99155.07
2023-07-21T02:17:23.028Z,99160.55
2023-07-21T02:19:49.555Z,99162.79
2023-07-21T02:22:16.548Z,99165.36
2023-07-21T02:24:43.215Z,99168.87
2023-07-21T02:27:11.694Z,99171.48
2023-07-21T02:29:38.521Z,99173.30
2023-07-21T02:32:05.775Z,99174.73
2023-07-21T02:34:32.777Z,99173.16
2023-07-21T02:36:59.620Z,99175.45
2023-07-21T02:39:26.433Z,99178.26
2023-07-21T02:41:53.075Z,99178.17
2023-07-21T02:44:19.978Z,99182.86
2023-07-21T02:46:48.072Z,99182.61
2023-07-21T02:49:15.728Z,99186.81
2023-07-21T02:51:42.544Z,99192.08
2023-07-21T02:54:09.171Z,99191.66
2023-07-21T02:56:36.253Z,99194.96
2023-07-21T02:59:09.770Z,99196.86
2023-07-21T03:01:37.194Z,99196.72
2023-07-21T03:04:04.373Z,99194.56
2023-07-21T03:06:32.169Z,99191.02
2023-07-21T03:08:59.147Z,99192.02
2023-07-21T03:13:26.485Z,99196.01
2023-07-21T03:15:54.178Z,99201.05
2023-07-21T03:18:27.896Z,99198.80
2023-07-21T03:21:12.161Z,99201.30
2023-07-21T03:23:39.728Z,99207.53
2023-07-21T03:26:07.160Z,99212.48
2023-07-21T03:28:39.732Z,99216.21
2023-07-21T03:31:07.211Z,99217.95
2023-07-21T03:33:41.385Z,99222.76
2023-07-21T03:36:15.755Z,99226.63
2023-07-21T03:38:43.270Z,99231.02
2023-07-21T03:41:10.842Z,99228.83
2023-07-21T03:43:38.706Z,99233.98
2023-07-21T03:46:07.983Z,99234.48
2023-07-21T03:48:55.705Z,99233.99
2023-07-21T03:51:23.429Z,99232.40
2023-07-21T03:53:50.902Z,99234.44
2023-07-21T03:56:20.266Z,99232.71
2023-07-21T03:58:47.921Z,99233.27
2023-07-21T04:01:16.591Z,99238.33
2023-07-21T04:03:44.489Z,99246.11
2023-07-21T04:06:16.275Z,99247.34
2023-07-21T04:08:43.725Z,99244.23
2023-07-21T04:11:11.114Z,99245.44
2023-07-21T04:13:38.860Z,99253.44
2023-07-21T04:16:06.703Z,99258.27
2023-07-21T04:18:34.460Z,99265.58
2023-07-21T04:21:03.364Z,99275.02
2023-07-21T04:23:30.895Z,99274.84
2023-07-21T04:25:58.658Z,99277.69
2023-07-21T04:28:26.125Z,99279.91
2023-07-21T04:30:55.403Z,99280.80
2023-07-21T04:33:23.042Z,99290.11
2023-07-21T04:35:52.423Z,99298.61
2023-07-21T04:38:25.967Z,99300.04
2023-07-21T04:40:59.582Z,99298.60
2023-07-21T04:43:27.135Z,99297.41
2023-07-21T04:45:55.667Z,99297.73
2023-07-21T04:48:30.877Z,99296.92
2023-07-21T04:50:59.347Z,99295.02
2023-07-21T04:53:26.960Z,99295.41
2023-07-21T04:55:58.390Z,99297.09
2023-07-21T04:58:27.351Z,99298.09
2023-07-21T05:00:55.982Z,99293.77
2023-07-21T05:03:23.869Z,99297.09
2023-07-21T05:05:51.475Z,99300.68
2023-07-21T05:08:22.305Z,99308.39
2023-07-21T05:10:49.852Z,99311.17
2023-07-21T05:13:19.309Z,99312.38
2023-07-21T05:16:02.283Z,99320.70
2023-07-21T05:18:42.522Z,99322.36
2023-07-21T05:21:43.586Z,99325.87
2023-07-21T05:24:29.839Z,99323.45
2023-07-21T05:26:58.618Z,99329.53
2023-07-21T05:29:40.259Z,99332.59
2023-07-21T05:32:08.477Z,99332.70
2023-07-21T05:34:36.114Z,99337.23
2023-07-21T05:37:06.847Z,99339.46
2023-07-21T05:39:34.634Z,99336.84
2023-07-21T05:42:02.851Z,99344.35
2023-07-21T05:44:34.807Z,99340.59
2023-07-21T05:47:02.935Z,99333.52
2023-07-21T05:49:31.226Z,99337.95
2023-07-21T05:51:59.861Z,99335.24
2023-07-21T05:54:34.684Z,99333.62
2023-07-21T05:57:02.445Z,99335.59
2023-07-21T05:59:38.197Z,99338.21
2023-07-21T06:02:05.813Z,99340.39
2023-07-21T06:04:37.072Z,99341.98
2023-07-21T06:07:33.906Z,99351.13
2023-07-21T06:10:18.748Z,99356.28
2023-07-21T06:13:10.144Z,99358.67
2023-07-21T06:16:00.779Z,99358.81
2023-07-21T06:18:39.981Z,99359.59
2023-07-21T06:21:07.471Z,99361.08
2023-07-21T06:23:34.926Z,99361.20
2023-07-21T06:26:02.454Z,99368.84
2023-07-21T06:28:30.883Z,99366.05
2023-07-21T06:30:58.499Z,99370.98
2023-07-21T06:33:55.238Z,99372.88
2023-07-21T06:36:42.979Z,99373.25
2023-07-21T06:39:33.983Z,99369.84
2023-07-21T06:42:16.935Z,99371.15
2023-07-21T06:45:03.141Z,99378.45
2023-07-21T06:47:46.329Z,99382.24
2023-07-21T06:50:20.644Z,99378.98
2023-07-21T06:52:53.226Z,99380.33
2023-07-21T06:55:23.033Z,99384.80
2023-07-21T06:57:50.903Z,99388.75
2023-07-21T07:00:19.804Z,99387.38
2023-07-21T07:02:50.967Z,99388.54
2023-07-21T07:05:19.069Z,99390.64
2023-07-21T07:07:47.423Z,99392.14
2023-07-21T07:10:15.049Z,99394.36
2023-07-21T07:12:42.806Z,99386.91
2023-07-21T07:15:12.656Z,99388.38
2023-07-21T07:17:40.184Z,99387.31
2023-07-21T07:20:10.843Z,99383.34
2023-07-21T07:22:38.896Z,99386.00
2023-07-21T07:25:07.569Z,99385.59
2023-07-21T07:27:35.562Z,99386.80
2023-07-21T07:30:03.538Z,99388.29
2023-07-21T07:32:31.153Z,99387.11
2023-07-21T07:35:00.186Z,99389.44
2023-07-21T07:37:28.369Z,99389.67
2023-07-21T07:39:57.012Z,99389.30
2023-07-21T07:42:25.241Z,99392.21
2023-07-21T07:44:56.762Z,99389.58
2023-07-21T07:47:24.382Z,99390.48
2023-07-21T07:49:52.344Z,99391.80
2023-07-21T07:52:19.915Z,99395.79
2023-07-21T07:54:48.202Z,99399.64
2023-07-21T07:57:16.080Z,99404.45
2023-07-21T07:59:43.773Z,99405.14
2023-07-21T08:02:11.262Z,99404.90
2023-07-21T08:04:38.817Z,99405.38
2023-07-21T08:07:07.284Z,99408.35
2023-07-21T08:09:34.816Z,99407.73
2023-07-21T08:12:02.228Z,99413.20
2023-07-21T08:14:29.666Z,99416.38
2023-07-21T08:16:57.186Z,99414.28
2023-07-21T08:19:24.662Z,99414.38
2023-07-21T08:21:52.081Z,99415.52
2023-07-21T08:24:19.773Z,99415.02
2023-07-21T08:26:47.207Z,99411.51
2023-07-21T08:29:14.714Z,99408.73
2023-07-21T08:31:42.270Z,99410.07
2023-07-21T08:34:11.393Z,99412.02
2023-07-21T08:36:52.564Z,99409.98
2023-07-21T08:39:21.563Z,99408.28
2023-07-21T08:41:51.402Z,99409.89
2023-07-21T08:44:20.592Z,99410.67
2023-07-21T08:46:48.767Z,99413.25
2023-07-21T08:49:19.689Z,99414.74
2023-07-21T08:51:47.868Z,99411.05
2023-07-21T08:54:15.356Z,99419.90
2023-07-21T08:56:42.873Z,99417.41
2023-07-21T08:59:12.130Z,99416.90
2023-07-21T09:01:40.088Z,99421.13
2023-07-21T09:04:23.639Z,99421.23
2023-07-21T09:06:55.900Z,99421.34
2023-07-21T09:09:24.979Z,99417.52
2023-07-21T09:12:07.061Z,99415.49
2023-07-21T09:14:41.868Z,99417.66
2023-07-21T09:17:10.894Z,99421.73
2023-07-21T09:19:39.483Z,99415.56
2023-07-21T09:22:08.130Z,99417.17
2023-07-21T09:24:36.019Z,99418.92
2023-07-21T09:27:17.413Z,99418.51
2023-07-21T09:29:45.140Z,99419.70
2023-07-21T09:32:13.276Z,99415.47
2023-07-21T09:35:02.054Z,99420.69
2023-07-21T09:37:31.322Z,99421.47
2023-07-21T09:40:06.339Z,99416.63
2023-07-21T09:42:34.004Z,99420.20
2023-07-21T09:45:01.412Z,99423.32
2023-07-21T09:47:29.091Z,99415.17
2023-07-21T09:49:59.148Z,99414.35
2023-07-21T09:52:27.424Z,99420.80
2023-07-21T09:55:15.224Z,99420.64
2023-07-21T09:57:46.977Z,99417.95
2023-07-21T10:00:16.189Z,99418.69
2023-07-21T10:02:46.464Z,99418.59
2023-07-21T10:05:15.132Z,99429.38
2023-07-21T10:07:44.614Z,99433.52
2023-07-21T10:10:12.801Z,99435.57
2023-07-21T10:12:48.013Z,99437.14
2023-07-21T10:15:23.225Z,99436.98
2023-07-21T10:17:58.261Z,99440.21
2023-07-21T10:20:45.673Z,99437.40
2023-07-21T10:23:15.029Z,99441.19
2023-07-21T10:25:59.312Z,99440.48
2023-07-21T10:28:40.101Z,99444.56
2023-07-21T10:31:26.626Z,99445.16
2023-07-21T10:34:07.362Z,99445.56
2023-07-21T10:36:50.457Z,99444.83
2023-07-21T10:39:23.363Z,99451.87
2023-07-21T10:41:53.586Z,99451.06
2023-07-21T10:44:21.215Z,99449.45
2023-07-21T10:46:49.925Z,99446.73
2023-07-21T10:49:18.535Z,99445.79
2023-07-21T10:51:47.716Z,99441.16
2023-07-21T10:54:15.742Z,99440.94
2023-07-21T10:56:44.961Z,99440.65
2023-07-21T10:59:13.570Z,99437.41
2023-07-21T11:01:48.348Z,99436.63
2023-07-21T11:04:16.513Z,99442.05
2023-07-21T11:06:51.991Z,99442.73
2023-07-21T11:09:21.224Z,99441.45
2023-07-21T11:11:51.941Z,99435.95
2023-07-21T11:14:26.806Z,99436.52
2023-07-21T11:16:56.316Z,99439.55
2023-07-21T11:19:25.782Z,99437.83
2023-07-21T11:21:55.428Z,99442.55
2023-07-21T11:24:30.355Z,99437.34
2023-07-21T11:27:12.883Z,99443.34
2023-07-21T11:29:42.129Z,99440.83
2023-07-21T11:32:20.107Z,99443.60
2023-07-21T11:34:47.880Z,99433.46
2023-07-21T11:37:18.910Z,99428.12
2023-07-21T11:39:58.094Z,99426.44
2023-07-21T11:42:26.103Z,99427.51
2023-07-21T11:44:54.368Z,99428.54
2023-07-21T11:47:22.451Z,99432.88
2023-07-21T11:49:53.337Z,99431.10
2023-07-21T11:52:24.084Z,99431.74
2023-07-21T11:54:51.791Z,99435.93
2023-07-21T11:57:20.071Z,99436.56
2023-07-21T11:59:47.526Z,99436.45
2023-07-21T12:02:16.024Z,99434.70
2023-07-21T12:04:43.827Z,99430.28
2023-07-21T12:07:11.345Z,99417.42
2023-07-21T12:09:39.825Z,99416.81
2023-07-21T12:12:09.370Z,99422.64
2023-07-21T12:14:39.220Z,99416.64
2023-07-21T12:17:07.157Z,99423.84
2023-07-21T12:19:36.308Z,99422.45
2023-07-21T12:22:04.281Z,99424.36
2023-07-21T12:24:31.879Z,99423.83
2023-07-21T12:26:59.432Z,99420.73
2023-07-21T12:29:44.044Z,99422.81
2023-07-21T12:32:13.401Z,99415.52
2023-07-21T12:34:41.341Z,99409.93
2023-07-21T12:37:08.987Z,99405.03
2023-07-21T12:39:36.756Z,99401.31
2023-07-21T12:42:04.816Z,99410.31
2023-07-21T12:44:32.699Z,99409.50
2023-07-21T12:47:00.149Z,99411.70
2023-07-21T12:49:27.696Z,99415.11
2023-07-21T12:51:55.093Z,99417.24
2023-07-21T12:54:22.650Z,99416.55
2023-07-21T12:56:50.376Z,99421.02
2023-07-21T12:59:18.084Z,99422.27
2023-07-21T13:01:46.254Z,99414.02
2023-07-21T13:04:21.046Z,99416.64
2023-07-21T13:06:49.078Z,99416.02
2023-07-21T13:09:16.458Z,99408.48
2023-07-21T13:11:43.957Z,99410.04
2023-07-21T13:14:11.805Z,99418.23
2023-07-21T13:16:40.102Z,99417.35
2023-07-21T13:19:08.988Z,99419.11
2023-07-21T13:21:36.951Z,99426.66
2023-07-21T13:24:04.997Z,99428.45
2023-07-21T13:26:35.034Z,99426.34
2023-07-21T13:29:03.245Z,99426.15
2023-07-21T13:31:30.886Z,99428.45
2023-07-21T13:33:58.541Z,99428.49
2023-07-21T13:36:26.251Z,99433.66
2023-07-21T13:38:54.038Z,99430.59
2023-07-21T13:41:21.600Z,99428.48
2023-07-21T13:43:49.058Z,99427.83
2023-07-21T13:46:16.563Z,99423.56
2023-07-21T13:48:44.443Z,99433.11
2023-07-21T13:51:12.031Z,99436.11
2023-07-21T13:53:40.553Z,99439.39
2023-07-21T13:56:08.196Z,99439.05
2023-07-21T13:58:35.590Z,99437.27
2023-07-21T14:01:03.075Z,99434.40
2023-07-21T14:03:30.850Z,99426.83
2023-07-21T14:05:58.374Z,99432.73
2023-07-21T14:08:26.111Z,99432.40
2023-07-21T14:10:53.631Z,99430.89
2023-07-21T14:13:21.208Z,99421.93
2023-07-21T14:15:49.896Z,99424.27
2023-07-21T14:18:18.715Z,99423.62
2023-07-21T14:20:46.266Z,99424.28
2023-07-21T14:23:14.225Z,99430.17
2023-07-21T14:25:41.749Z,99429.04
2023-07-21T14:28:09.405Z,99430.67
2023-07-21T14:30:37.458Z,99429.90
2023-07-21T14:33:05.592Z,99429.57
2023-07-21T14:35:33.216Z,99430.64
2023-07-21T14:38:00.636Z,99427.86
2023-07-21T14:40:28.331Z,99423.40
2023-07-21T14:42:55.887Z,99421.86
2023-07-21T14:45:23.380Z,99425.36
2023-07-21T14:47:51.383Z,99422.15
2023-07-21T14:50:18.994Z,99423.89
2023-07-21T14:52:46.541Z,99422.63
2023-07-21T14:55:14.432Z,99421.02
2023-07-21T14:57:42.644Z,99419.99
2023-07-21T15:00:15.394Z,99422.99
2023-07-21T15:02:43.191Z,99423.22
2023-07-21T15:05:11.731Z,99422.61
2023-07-21T15:07:39.164Z,99420.49
2023-07-21T15:10:07.192Z,99427.77
2023-07-21T15:12:34.551Z,99433.36
2023-07-21T15:15:02.380Z,99427.18
2023-07-21T15:17:29.912Z,99427.44
2023-07-21T15:19:57.474Z,99427.73
2023-07-21T15:22:25.716Z,99421.65
2023-07-21T15:24:53.307Z,99423.13
2023-07-21T15:27:20.754Z,99426.05
2023-07-21T15:31:19.193Z,99434.41
2023-07-21T15:33:46.857Z,99436.09
2023-07-21T15:36:17.372Z,99442.58
2023-07-21T15:38:45.697Z,99441.05
2023-07-21T15:41:13.606Z,99437.29
2023-07-21T15:43:41.944Z,99441.56
2023-07-21T15:46:09.434Z,99441.17
2023-07-21T15:48:38.234Z,99446.76
2023-07-21T15:51:06.468Z,99447.84
2023-07-21T15:53:33.972Z,99449.79
2023-07-21T15:56:01.526Z,99447.16
2023-07-21T15:58:28.953Z,99445.41
2023-07-21T16:01:03.661Z,99448.83
2023-07-21T16:03:31.522Z,99450.30
2023-07-21T16:05:59.284Z,99448.44
2023-07-21T16:08:26.817Z,99450.98
2023-07-21T16:10:54.637Z,99448.23
2023-07-21T16:13:23.033Z,99446.20
2023-07-21T16:15:51.116Z,99452.35
2023-07-21T16:18:18.706Z,99449.94
2023-07-21T16:20:46.241Z,99458.15
2023-07-21T16:23:14.145Z,99457.77
2023-07-21T16:25:41.877Z,99457.71
2023-07-21T16:28:09.436Z,99461.06
2023-07-21T16:30:40.079Z,99464.08
2023-07-21T16:33:07.624Z,99470.67
2023-07-21T16:35:35.261Z,99475.96
2023-07-21T16:38:03.078Z,99481.67
2023-07-21T16:40:30.675Z,99484.09
2023-07-21T16:42:58.166Z,99489.20
2023-07-21T16:45:25.631Z,99490.69
2023-07-21T16:47:55.690Z,99490.71
2023-07-21T16:50:26.990Z,99490.37
2023-07-21T16:52:54.954Z,99490.30
2023-07-21T16:55:23.582Z,99492.11
2023-07-21T16:57:51.048Z,99500.27
2023-07-21T17:00:18.656Z,99506.52
2023-07-21T17:02:46.608Z,99512.36
2023-07-21T17:05:30.304Z,99516.08
2023-07-21T17:07:59.916Z,99513.63
2023-07-21T17:10:31.280Z,99512.13
2023-07-21T17:13:01.737Z,99511.25
2023-07-21T17:15:29.475Z,99510.05
2023-07-21T17:17:57.235Z,99510.33
2023-07-21T17:20:26.263Z,99507.33
2023-07-21T17:22:54.519Z,99505.59
2023-07-21T17:25:27.497Z,99503.20
2023-07-21T17:27:55.679Z,99503.03
2023-07-21T17:30:24.365Z,99506.11
2023-07-21T17:32:52.721Z,99500.13
2023-07-21T17:35:20.427Z,99501.87
2023-07-21T17:37:47.934Z,99502.73
2023-07-21T17:40:15.395Z,99504.58
2023-07-21T17:42:43.213Z,99510.36
2023-07-21T17:45:13.222Z,99507.13
2023-07-21T17:47:43.077Z,99509.52
2023-07-21T17:50:12.118Z,99511.69
2023-07-21T17:52:40.573Z,99508.88
2023-07-21T17:55:08.723Z,99504.59
2023-07-21T17:57:36.176Z,99508.05
2023-07-21T18:00:06.563Z,99512.66
2023-07-21T18:02:41.771Z,99505.58
2023-07-21T18:05:10.517Z,99502.02
2023-07-21T18:07:38.099Z,99507.27
2023-07-21T18:10:06.093Z,99507.11
2023-07-21T18:12:33.619Z,99511.65
2023-07-21T18:15:01.028Z,99516.33
2023-07-21T18:17:28.472Z,99519.84
2023-07-21T18:19:56.061Z,99522.03
2023-07-21T18:22:23.485Z,99512.70
2023-07-21T18:24:51.340Z,99512.70
2023-07-21T18:27:18.889Z,99519.36
2023-07-21T18:29:46.333Z,99524.13
2023-07-21T18:32:14.445Z,99534.89
2023-07-21T18:34:42.123Z,99542.89
2023-07-21T18:37:09.519Z,99549.08
2023-07-21T18:39:37.250Z,99547.39
2023-07-21T18:42:05.573Z,99544.02
2023-07-21T18:44:33.488Z,99548.66
2023-07-21T18:47:01.146Z,99548.65
2023-07-21T18:49:29.294Z,99556.21
2023-07-21T18:51:56.698Z,99559.14
2023-07-21T18:54:24.534Z,99561.95
2023-07-21T18:56:52.104Z,99568.71
2023-07-21T18:59:19.604Z,99567.33
2023-07-21T19:01:47.113Z,99559.40
2023-07-21T19:04:14.533Z,99555.16
2023-07-21T19:06:42.028Z,99557.23
2023-07-21T19:09:09.498Z,99566.40
2023-07-21T19:11:36.894Z,99575.98
2023-07-21T19:14:04.981Z,99572.39
2023-07-21T19:16:32.458Z,99570.48
2023-07-21T19:18:59.816Z,99568.61
2023-07-21T19:21:27.425Z,99566.81
2023-07-21T19:23:55.143Z,99570.05
2023-07-21T19:26:22.680Z,99570.85
2023-07-21T19:28:50.290Z,99574.84
2023-07-21T19:31:20.652Z,99576.69
2023-07-21T19:33:48.220Z,99575.21
2023-07-21T19:36:15.975Z,99580.93
2023-07-21T19:38:43.578Z,99582.67
2023-07-21T19:41:12.450Z,99588.92
2023-07-21T19:43:39.861Z,99594.61
2023-07-21T19:46:07.313Z,99593.90
2023-07-21T19:48:34.720Z,99596.64
2023-07-21T19:51:02.288Z,99594.04
2023-07-21T19:53:29.786Z,99595.82
2023-07-21T19:55:57.151Z,99589.98
2023-07-21T19:58:24.547Z,99589.66
2023-07-21T20:00:52.133Z,99588.64
2023-07-21T20:03:19.594Z,99584.70
2023-07-21T20:05:47.222Z,99584.44
2023-07-21T20:08:15.865Z,99588.08
2023-07-21T20:10:43.234Z,99587.39
2023-07-21T20:13:10.646Z,99589.52
2023-07-21T20:15:38.113Z,99590.61
2023-07-21T20:18:05.643Z,99585.81
2023-07-21T20:20:33.306Z,99583.70
2023-07-21T20:23:00.725Z,99582.63
2023-07-21T20:25:28.241Z,99582.58
2023-07-21T20:27:55.605Z,99579.48
2023-07-21T20:30:23.001Z,99580.02
2023-07-21T20:32:51.583Z,99583.64
2023-07-21T20:35:19.325Z,99583.89
2023-07-21T20:37:46.838Z,99581.98
2023-07-21T20:40:14.348Z,99588.50
2023-07-21T20:42:41.835Z,99593.90
2023-07-21T20:45:09.869Z,99598.36
2023-07-21T20:47:37.404Z,99599.19
2023-07-21T20:50:05.382Z,99596.70
2023-07-21T20:52:33.054Z,99598.64
2023-07-21T20:55:00.599Z,99599.63
2023-07-21T20:57:28.054Z,99598.27
2023-07-21T20:59:56.755Z,99599.80
2023-07-21T21:02:24.196Z,99601.43
2023-07-21T21:04:51.758Z,99599.39
2023-07-21T21:07:19.515Z,99604.02
2023-07-21T21:09:47.007Z,99609.55
2023-07-21T21:12:17.291Z,99603.66
2023-07-21T21:14:44.790Z,99607.54
2023-07-21T21:17:12.309Z,99607.94
2023-07-21T21:19:39.870Z,99607.80
2023-07-21T21:22:07.357Z,99606.45
2023-07-21T21:24:34.726Z,99611.23
2023-07-21T21:27:02.184Z,99612.04
2023-07-21T21:29:29.623Z,99612.77
2023-07-21T21:31:57.138Z,99613.75
2023-07-21T21:34:24.718Z,99608.09
2023-07-21T21:36:52.227Z,99606.95
2023-07-21T21:39:19.604Z,99610.46
2023-07-21T21:41:48.371Z,99611.84
2023-07-21T21:44:16.881Z,99610.68
2023-07-21T21:46:44.607Z,99616.89
2023-07-21T21:49:12.120Z,99627.55
2023-07-21T21:51:39.589Z,99632.29
2023-07-21T21:54:07.140Z,99639.20
2023-07-21T21:56:34.628Z,99648.52
2023-07-21T21:59:02.065Z,99653.93
2023-07-21T22:01:29.752Z,99652.58
2023-07-21T22:03:57.518Z,99646.92
2023-07-21T22:06:25.215Z,99645.52
2023-07-21T22:08:52.999Z,99649.81
2023-07-21T22:11:20.740Z,99646.63
2023-07-21T22:13:48.349Z,99644.70
2023-07-21T22:16:15.755Z,99645.39
2023-07-21T22:18:43.340Z,99637.56
2023-07-21T22:21:10.806Z,99629.77
2023-07-21T22:23:38.264Z,99630.33
2023-07-21T22:26:06.849Z,99625.20
2023-07-21T22:28:34.669Z,99627.33
2023-07-21T22:31:12.932Z,99625.00
2023-07-21T22:33:40.976Z,99623.76
2023-07-21T22:36:09.882Z,99629.18
2023-07-21T22:38:37.650Z,99631.13
2023-07-21T22:41:06.255Z,99637.43
2023-07-21T22:43:34.144Z,99631.92
2023-07-21T22:46:01.687Z,99632.02
2023-07-21T22:48:29.481Z,99633.45
2023-07-21T22:50:57.077Z,99636.70
2023-07-21T22:53:24.573Z,99635.56
2023-07-21T22:55:54.031Z,99632.05
2023-07-21T22:58:21.487Z,99631.77
2023-07-21T23:00:48.960Z,99634.67
2023-07-21T23:03:17.772Z,99646.21
2023-07-21T23:05:45.957Z,99641.34
2023-07-21T23:08:13.463Z,99642.83
2023-07-21T23:10:40.970Z,99648.37
2023-07-21T23:13:08.508Z,99646.86
2023-07-21T23:15:36.127Z,99648.30
2023-07-21T23:18:05.245Z,99649.30
2023-07-21T23:20:32.966Z,99649.94
2023-07-21T23:23:00.689Z,99652.34
2023-07-21T23:25:28.797Z,99648.06
2023-07-21T23:27:56.426Z,99651.90
2023-07-21T23:30:23.836Z,99648.94
2023-07-21T23:32:51.461Z,99653.29
2023-07-21T23:35:19.114Z,99647.20
2023-07-21T23:37:47.773Z,99643.23
2023-07-21T23:40:15.984Z,99633.77
2023-07-21T23:42:44.435Z,99631.83
2023-07-21T23:45:12.618Z,99627.89
2023-07-21T23:47:44.091Z,99623.73
2023-07-21T23:50:11.488Z,99627.56
2023-07-21T23:52:39.097Z,99628.05
2023-07-21T23:55:07.075Z,99621.80
2023-07-21T23:57:34.539Z,99619.66
